createdAt,value
2022-08-26T00:02:29.488Z,19.58
2022-08-26T00:07:31.154Z,19.58
2022-08-26T00:12:37.336Z,19.53
2022-08-26T00:17:40.328Z,19.48
2022-08-26T00:22:42.097Z,19.46
2022-08-26T00:27:45.570Z,19.37
2022-08-26T00:32:47.245Z,19.36
2022-08-26T00:37:51.167Z,19.34
2022-08-26T00:42:53.055Z,19.28
2022-08-26T00:48:01.211Z,19.32
2022-08-26T00:53:21.479Z,19.36
2022-08-26T00:58:29.505Z,19.28
2022-08-26T01:03:34.206Z,19.25
2022-08-26T01:08:36.134Z,19.16
2022-08-26T01:13:38.831Z,19.13
2022-08-26T01:18:43.329Z,19.10
2022-08-26T01:23:50.702Z,19.09
2022-08-26T01:28:55.877Z,19.07
2022-08-26T01:34:15.377Z,19.06
2022-08-26T01:39:17.712Z,19.04
2022-08-26T01:44:23.494Z,19.03
2022-08-26T01:49:26.703Z,18.98
2022-08-26T01:54:28.426Z,19.01
2022-08-26T01:59:30.390Z,18.98
2022-08-26T02:04:41.347Z,18.97
2022-08-26T02:09:44.197Z,18.92
2022-08-26T02:14:53.218Z,18.97
2022-08-26T02:19:56.132Z,18.94
2022-08-26T02:25:02.367Z,18.87
2022-08-26T02:30:07.206Z,18.83
2022-08-26T02:35:11.890Z,18.77
2022-08-26T02:40:17.012Z,18.69
2022-08-26T02:45:23.273Z,18.64
2022-08-26T02:50:25.735Z,18.58
2022-08-26T02:55:27.324Z,18.53
2022-08-26T03:00:29.479Z,18.51
2022-08-26T03:05:31.376Z,18.45
2022-08-26T03:10:32.934Z,18.37
2022-08-26T03:15:34.746Z,18.37
2022-08-26T03:20:36.418Z,18.32
2022-08-26T03:25:38.698Z,18.31
2022-08-26T03:30:45.444Z,18.28
2022-08-26T03:35:50.803Z,18.26
2022-08-26T03:40:52.530Z,18.22
2022-08-26T03:45:54.101Z,18.17
2022-08-26T03:50:56.370Z,18.14
2022-08-26T03:55:59.250Z,18.11
2022-08-26T04:01:00.930Z,18.12
2022-08-26T04:06:03.850Z,18.08
2022-08-26T04:11:06.413Z,18.02
2022-08-26T04:16:08.289Z,18.06
2022-08-26T04:21:12.210Z,18.09
2022-08-26T04:26:19.839Z,18.06
2022-08-26T04:31:22.656Z,18.05
2022-08-26T04:36:25.290Z,18.07
2022-08-26T04:41:27.353Z,18.11
2022-08-26T04:46:33.387Z,18.20
2022-08-26T04:51:36.420Z,18.31
2022-08-26T04:56:41.430Z,18.38
2022-08-26T05:01:48.663Z,18.52
2022-08-26T05:06:51.943Z,18.59
2022-08-26T05:11:54.086Z,18.63
2022-08-26T05:16:55.894Z,18.67
2022-08-26T05:21:57.870Z,18.72
2022-08-26T05:26:59.454Z,18.82
2022-08-26T05:32:01.662Z,18.93
2022-08-26T05:37:05.442Z,19.03
2022-08-26T05:42:08.271Z,19.30
2022-08-26T05:47:10.878Z,19.47
2022-08-26T05:52:12.637Z,19.56
2022-08-26T05:57:14.334Z,19.66
2022-08-26T06:02:15.871Z,19.86
2022-08-26T06:07:40.287Z,20.11
2022-08-26T06:12:41.873Z,20.33
2022-08-26T06:17:45.677Z,20.54
2022-08-26T06:23:05.639Z,20.63
2022-08-26T06:28:08.050Z,20.66
2022-08-26T06:33:09.736Z,20.61
2022-08-26T06:38:11.970Z,20.52
2022-08-26T06:43:14.764Z,20.49
2022-08-26T06:48:20.247Z,20.47
2022-08-26T06:53:22.921Z,20.51
2022-08-26T06:58:24.505Z,20.68
2022-08-26T07:03:26.286Z,20.78
2022-08-26T07:08:27.853Z,20.85
2022-08-26T07:13:30.535Z,20.98
2022-08-26T07:18:34.389Z,21.25
2022-08-26T07:23:36.395Z,21.52
2022-08-26T07:28:39.348Z,21.74
2022-08-26T07:33:41.625Z,21.85
2022-08-26T07:38:44.506Z,21.92
2022-08-26T07:43:46.221Z,21.93
2022-08-26T07:48:49.383Z,21.96
2022-08-26T07:53:52.690Z,22.07
2022-08-26T07:58:54.437Z,22.20
2022-08-26T08:03:56.581Z,22.36
2022-08-26T08:08:58.173Z,22.70
2022-08-26T08:14:00.992Z,23.04
2022-08-26T08:19:03.144Z,23.31
2022-08-26T08:24:05.609Z,23.63
2022-08-26T08:29:08.794Z,23.86
2022-08-26T08:34:10.395Z,24.10
2022-08-26T08:39:12.348Z,24.49
2022-08-26T08:44:20.422Z,25.14
2022-08-26T08:49:23.281Z,25.33
2022-08-26T08:54:26.808Z,25.31
2022-08-26T08:59:32.365Z,25.31
2022-08-26T09:04:54.076Z,25.52
2022-08-26T09:10:01.876Z,25.28
2022-08-26T09:15:16.507Z,24.98
2022-08-26T09:20:36.758Z,24.89
2022-08-26T09:25:50.914Z,24.86
2022-08-26T09:31:29.212Z,24.85
2022-08-26T09:36:41.494Z,24.93
2022-08-26T09:41:43.520Z,24.98
2022-08-26T09:46:55.526Z,25.12
2022-08-26T09:52:21.786Z,25.33
2022-08-26T09:57:29.025Z,25.63
2022-08-26T10:02:33.201Z,25.85
2022-08-26T10:07:46.874Z,26.69
2022-08-26T10:12:58.276Z,30.07
2022-08-26T10:18:52.559Z,31.13
2022-08-26T10:23:59.374Z,29.39
2022-08-26T10:29:10.393Z,28.25
2022-08-26T10:34:14.170Z,27.44
2022-08-26T10:39:25.369Z,26.95
2022-08-26T10:44:34.412Z,26.51
2022-08-26T10:49:37.457Z,26.17
2022-08-26T10:55:01.319Z,25.89
2022-08-26T11:00:34.691Z,25.85
2022-08-26T11:05:36.243Z,25.83
2022-08-26T11:10:58.930Z,25.87
2022-08-26T11:16:01.295Z,25.87
2022-08-26T11:21:02.985Z,25.85
2022-08-26T11:26:11.050Z,25.84
2022-08-26T11:31:38.527Z,25.70
2022-08-26T11:36:43.491Z,25.55
2022-08-26T11:41:47.753Z,25.01
2022-08-26T11:47:00.701Z,24.73
2022-08-26T11:52:21.091Z,24.34
2022-08-26T11:57:26.439Z,24.19
2022-08-26T12:02:28.625Z,24.23
2022-08-26T12:07:30.453Z,24.25
2022-08-26T12:12:36.146Z,24.55
2022-08-26T12:17:39.475Z,25.04
2022-08-26T12:22:43.450Z,25.49
2022-08-26T12:27:53.653Z,25.73
2022-08-26T12:33:21.857Z,26.17
2022-08-26T12:38:26.859Z,28.16
2022-08-26T12:43:43.951Z,29.19
2022-08-26T12:48:49.022Z,29.99
2022-08-26T12:53:50.806Z,30.65
2022-08-26T12:59:11.152Z,30.74
2022-08-26T13:04:33.371Z,30.83
2022-08-26T13:09:36.256Z,31.00
2022-08-26T13:14:37.660Z,30.89
2022-08-26T13:19:40.277Z,31.19
2022-08-26T13:24:43.920Z,31.43
2022-08-26T13:29:45.422Z,31.19
2022-08-26T13:34:51.406Z,30.93
2022-08-26T13:39:54.381Z,30.73
2022-08-26T13:44:58.073Z,30.58
2022-08-26T13:49:59.767Z,30.74
2022-08-26T13:55:01.405Z,31.20
2022-08-26T14:00:05.260Z,31.49
2022-08-26T14:05:07.286Z,30.62
2022-08-26T14:10:09.375Z,29.71
2022-08-26T14:15:12.026Z,28.79
2022-08-26T14:20:20.076Z,28.56
2022-08-26T14:25:22.442Z,28.92
2022-08-26T14:30:24.055Z,29.29
2022-08-26T14:35:28.726Z,29.75
2022-08-26T14:40:31.977Z,29.87
2022-08-26T14:50:46.739Z,29.71
2022-08-26T14:55:48.292Z,28.97
2022-08-26T15:00:49.815Z,28.22
2022-08-26T15:05:51.417Z,27.57
2022-08-26T15:10:52.907Z,26.98
2022-08-26T15:15:54.557Z,25.95
2022-08-26T15:20:56.054Z,24.62
2022-08-26T15:25:57.663Z,23.85
2022-08-26T15:31:00.390Z,23.60
2022-08-26T15:36:04.229Z,23.19
2022-08-26T15:41:06.938Z,22.52
2022-08-26T15:46:11.998Z,21.82
2022-08-26T15:51:26.190Z,21.44
2022-08-26T15:56:30.157Z,21.13
2022-08-26T16:01:31.967Z,20.80
2022-08-26T16:06:35.931Z,20.64
2022-08-26T16:11:37.850Z,20.61
2022-08-26T16:16:40.058Z,20.73
2022-08-26T16:21:42.214Z,20.88
2022-08-26T16:26:45.144Z,20.92
2022-08-26T16:31:47.596Z,21.08
2022-08-26T16:36:49.106Z,21.11
2022-08-26T16:41:50.679Z,21.16
2022-08-26T16:46:58.462Z,21.21
2022-08-26T16:52:00.382Z,21.27
2022-08-26T16:57:02.575Z,21.39
2022-08-26T17:02:04.883Z,21.56
2022-08-26T17:07:06.592Z,21.48
2022-08-26T17:12:09.341Z,21.34
2022-08-26T17:17:10.824Z,21.25
2022-08-26T17:22:13.469Z,21.30
2022-08-26T17:27:15.213Z,21.30
2022-08-26T17:32:16.744Z,21.18
2022-08-26T17:37:18.413Z,21.10
2022-08-26T17:42:19.990Z,21.02
2022-08-26T17:47:21.514Z,20.94
2022-08-26T17:52:23.028Z,20.87
2022-08-26T17:57:25.235Z,20.70
2022-08-26T18:02:34.078Z,20.64
2022-08-26T18:07:43.624Z,20.61
2022-08-26T18:12:46.558Z,20.57
2022-08-26T18:17:48.130Z,20.55
2022-08-26T18:22:49.826Z,20.50
2022-08-26T18:27:51.430Z,20.45
2022-08-26T18:32:53.010Z,20.45
2022-08-26T18:37:55.969Z,20.37
2022-08-26T18:42:57.461Z,20.28
2022-08-26T18:47:58.984Z,20.27
2022-08-26T18:53:02.326Z,20.31
2022-08-26T18:58:03.885Z,20.30
2022-08-26T19:03:05.477Z,20.28
2022-08-26T19:08:17.384Z,20.33
2022-08-26T19:13:19.281Z,20.28
2022-08-26T19:18:22.275Z,20.23
2022-08-26T19:23:32.661Z,20.17
2022-08-26T19:28:35.302Z,20.15
2022-08-26T19:33:41.903Z,20.10
2022-08-26T19:38:45.226Z,20.12
2022-08-26T19:43:47.116Z,20.14
2022-08-26T19:48:54.037Z,20.08
2022-08-26T19:53:59.790Z,20.06
2022-08-26T19:59:01.659Z,20.12
2022-08-26T20:04:04.093Z,20.03
2022-08-26T20:09:05.598Z,20.01
2022-08-26T20:14:07.094Z,20.01
2022-08-26T20:19:27.312Z,20.03
2022-08-26T20:24:29.579Z,20.00
2022-08-26T20:29:31.292Z,19.92
2022-08-26T20:34:34.056Z,19.89
2022-08-26T20:39:35.917Z,19.86
2022-08-26T20:44:37.658Z,19.83
2022-08-26T20:49:46.741Z,19.86
2022-08-26T20:54:53.781Z,19.81
2022-08-26T20:59:55.298Z,19.88
2022-08-26T21:04:57.804Z,19.88
2022-08-26T21:09:59.616Z,19.73
2022-08-26T21:15:01.779Z,19.66
2022-08-26T21:20:04.176Z,19.67
2022-08-26T21:25:06.250Z,19.61
2022-08-26T21:30:08.505Z,19.58
2022-08-26T21:35:10.271Z,19.61
2022-08-26T21:40:12.315Z,19.58
2022-08-26T21:45:13.843Z,19.53
2022-08-26T21:50:15.408Z,19.43
2022-08-26T21:55:16.997Z,19.48
2022-08-26T22:00:19.444Z,19.50
2022-08-26T22:05:20.973Z,19.44
2022-08-26T22:10:22.514Z,19.42
2022-08-26T22:15:27.333Z,19.33
2022-08-26T22:20:30.991Z,19.29
2022-08-26T22:25:32.619Z,19.31
2022-08-26T22:30:35.305Z,19.25
2022-08-26T22:35:41.615Z,19.25
2022-08-26T22:40:50.347Z,19.24
2022-08-26T22:45:53.157Z,19.27
2022-08-26T22:51:00.178Z,19.26
2022-08-26T22:56:02.100Z,19.25
2022-08-26T23:01:05.667Z,19.16
2022-08-26T23:06:11.745Z,19.15
2022-08-26T23:11:14.929Z,19.13
2022-08-26T23:16:16.615Z,19.14
2022-08-26T23:21:18.906Z,19.13
2022-08-26T23:26:20.414Z,19.17
2022-08-26T23:31:21.978Z,19.08
2022-08-26T23:36:23.783Z,18.99
2022-08-26T23:41:25.413Z,18.97
2022-08-26T23:46:26.980Z,19.05
2022-08-26T23:51:46.910Z,19.02
2022-08-26T23:56:50.429Z,18.98
